Time;durP1;ratioP1;P1;durP2;ratioP2;P2;SDS_P1;SDS_P2;PMS_P1;PMS_P2;Temp;Humidity;BMP_temperature;BMP_pressure;BME280_temperature;BME280_humidity;BME280_pressure;Samples;Min_cycle;Max_cycle;Signal;HPM_P1;HPM_P2
2023/09/27 00:01:03;;;;;;;4.50;4.20;;;16.70;99.90;;;;;;5108851;27;20190;-65
2023/09/27 00:03:29;;;;;;;4.30;4.00;;;16.80;99.90;;;;;;5099143;28;20187;-65
2023/09/27 00:05:54;;;;;;;5.83;4.03;;;16.80;99.90;;;;;;5100455;28;20218;-65
2023/09/27 00:08:20;;;;;;;4.10;3.77;;;16.90;99.90;;;;;;5101515;27;20214;-65
2023/09/27 00:10:46;;;;;;;4.77;4.37;;;16.80;99.90;;;;;;5098108;27;20584;-64
2023/09/27 00:13:12;;;;;;;6.37;4.47;;;16.70;99.90;;;;;;5102753;28;20428;-64
2023/09/27 00:15:40;;;;;;;4.37;3.97;;;16.50;99.90;;;;;;5097120;28;20188;-65
2023/09/27 00:18:09;;;;;;;4.57;4.17;;;16.40;99.90;;;;;;5102974;28;20187;-64
2023/09/27 00:20:35;;;;;;;5.67;4.60;;;16.30;99.90;;;;;;5100244;28;22592;-65
2023/09/27 00:23:01;;;;;;;5.57;5.07;;;16.50;99.90;;;;;;5100222;28;20436;-65
2023/09/27 00:25:26;;;;;;;5.00;4.50;;;16.50;99.90;;;;;;5102803;27;20483;-65
2023/09/27 00:27:52;;;;;;;4.83;4.33;;;16.50;99.90;;;;;;5106212;27;20188;-65
2023/09/27 00:30:18;;;;;;;4.83;4.53;;;16.60;99.90;;;;;;5099425;28;20274;-64
2023/09/27 00:32:45;;;;;;;6.27;5.63;;;16.70;99.90;;;;;;5099904;28;20188;-65
2023/09/27 00:35:18;;;;;;;5.47;4.97;;;16.80;99.90;;;;;;5102598;28;20584;-65
2023/09/27 00:37:45;;;;;;;5.20;4.67;;;16.90;99.90;;;;;;5099885;28;20424;-65
2023/09/27 00:40:13;;;;;;;5.70;5.13;;;16.90;99.90;;;;;;5094796;28;20434;-65
2023/09/27 00:42:38;;;;;;;5.63;5.10;;;16.90;99.90;;;;;;5099794;28;21002;-65
2023/09/27 00:45:06;;;;;;;8.13;4.90;;;16.90;99.90;;;;;;5099852;28;20707;-64
2023/09/27 00:47:33;;;;;;;4.97;4.57;;;16.90;99.90;;;;;;5099581;28;20234;-64
2023/09/27 00:49:59;;;;;;;5.10;4.70;;;16.80;99.90;;;;;;5099430;28;21067;-65
2023/09/27 00:52:25;;;;;;;4.73;4.33;;;16.90;99.90;;;;;;5099085;28;20494;-64
2023/09/27 00:54:53;;;;;;;4.63;3.90;;;16.90;99.90;;;;;;5100098;28;21139;-65
2023/09/27 00:57:19;;;;;;;5.00;4.20;;;16.70;99.90;;;;;;5098761;28;20788;-64
2023/09/27 00:59:45;;;;;;;4.70;4.37;;;16.70;99.90;;;;;;5099998;28;20418;-65
2023/09/27 01:02:12;;;;;;;3.97;3.57;;;16.60;99.90;;;;;;5099013;28;20524;-64
2023/09/27 01:04:39;;;;;;;5.27;4.17;;;16.60;99.90;;;;;;5099583;28;20513;-65
2023/09/27 01:07:08;;;;;;;4.73;4.33;;;16.50;99.90;;;;;;5094192;28;20433;-64
2023/09/27 01:09:34;;;;;;;5.07;4.50;;;16.50;99.90;;;;;;5100105;28;20491;-65
2023/09/27 01:12:00;;;;;;;5.00;4.43;;;16.50;99.90;;;;;;5099736;28;20426;-65
2023/09/27 01:14:26;;;;;;;4.40;4.00;;;16.60;99.90;;;;;;5100730;28;20180;-65
2023/09/27 01:16:51;;;;;;;4.47;4.07;;;16.70;99.90;;;;;;5104110;28;20976;-65
2023/09/27 01:19:17;;;;;;;6.80;4.60;;;16.70;99.90;;;;;;5104545;27;20452;-64
2023/09/27 01:21:43;;;;;;;4.47;4.10;;;16.70;99.90;;;;;;5108029;27;20642;-65
2023/09/27 01:24:11;;;;;;;4.27;3.97;;;16.70;99.90;;;;;;5106142;28;20260;-65
2023/09/27 01:26:37;;;;;;;5.23;4.73;;;16.80;99.90;;;;;;5104407;28;20195;-65
2023/09/27 01:29:04;;;;;;;4.90;4.40;;;16.70;99.90;;;;;;5098586;27;20976;-65
2023/09/27 01:31:30;;;;;;;6.27;4.17;;;16.70;99.90;;;;;;5106226;28;20528;-65
2023/09/27 01:33:56;;;;;;;6.40;4.10;;;16.70;99.90;;;;;;5100582;28;20430;-65
2023/09/27 01:36:22;;;;;;;6.13;5.60;;;16.70;99.90;;;;;;5103245;28;20422;-65
2023/09/27 01:38:48;;;;;;;4.87;4.47;;;16.70;99.90;;;;;;5106151;28;20187;-65
2023/09/27 01:41:13;;;;;;;4.97;4.53;;;16.70;99.90;;;;;;5105916;28;20429;-64
2023/09/27 01:43:39;;;;;;;3.90;3.60;;;16.70;99.90;;;;;;5102999;28;20543;-65
2023/09/27 01:46:05;;;;;;;5.07;4.67;;;16.70;99.90;;;;;;5102698;28;20179;-65
2023/09/27 01:48:30;;;;;;;4.77;4.37;;;16.80;99.90;;;;;;5102606;28;20263;-65
2023/09/27 01:50:56;;;;;;;4.93;4.53;;;16.80;99.90;;;;;;5106405;28;20210;-65
2023/09/27 01:53:21;;;;;;;4.60;4.20;;;16.90;99.90;;;;;;5102297;28;20253;-65
2023/09/27 01:55:47;;;;;;;4.80;4.40;;;16.90;99.90;;;;;;5106007;28;20191;-65
2023/09/27 01:58:13;;;;;;;4.53;4.13;;;16.80;99.90;;;;;;5102194;28;20188;-65
2023/09/27 02:00:39;;;;;;;4.53;4.23;;;16.70;99.90;;;;;;5099462;28;20187;-65
2023/09/27 02:03:04;;;;;;;4.87;4.47;;;16.50;99.90;;;;;;5102319;28;20175;-65
2023/09/27 02:05:31;;;;;;;4.80;4.40;;;16.50;99.90;;;;;;5103473;28;20220;-65
2023/09/27 02:07:57;;;;;;;4.63;4.23;;;16.40;99.90;;;;;;5104920;28;20187;-65
2023/09/27 02:10:23;;;;;;;5.03;4.63;;;16.40;99.90;;;;;;5104961;28;20428;-64
2023/09/27 02:12:49;;;;;;;4.60;4.23;;;16.40;99.90;;;;;;5102548;28;20431;-65
2023/09/27 02:15:16;;;;;;;5.00;4.60;;;16.40;99.90;;;;;;5104898;28;20483;-65
2023/09/27 02:17:42;;;;;;;4.60;4.30;;;16.40;99.90;;;;;;5102378;28;20453;-65
2023/09/27 02:20:19;;;;;;;4.40;4.10;;;16.40;99.90;;;;;;5104952;28;20445;-65
2023/09/27 02:22:49;;;;;;;4.30;4.00;;;16.40;99.90;;;;;;5102458;28;20928;-65
2023/09/27 02:25:16;;;;;;;5.90;5.40;;;16.30;99.90;;;;;;5100627;28;20477;-65
2023/09/27 02:27:42;;;;;;;4.93;4.53;;;16.20;99.90;;;;;;5105147;28;20438;-65
2023/09/27 02:30:12;;;;;;;4.50;4.20;;;16.20;99.90;;;;;;5101422;28;21296;-65
2023/09/27 02:32:42;;;;;;;5.10;4.70;;;16.20;99.90;;;;;;5105384;28;20421;-65
2023/09/27 02:35:09;;;;;;;4.93;4.53;;;16.10;99.90;;;;;;5101430;28;21239;-65
2023/09/27 02:37:36;;;;;;;4.80;4.40;;;16.10;99.90;;;;;;5096956;28;20425;-65
2023/09/27 02:40:11;;;;;;;6.07;4.63;;;16.10;99.90;;;;;;5093400;27;20425;-64
2023/09/27 02:42:43;;;;;;;5.63;5.13;;;16.10;99.90;;;;;;5103272;27;21062;-64
2023/09/27 02:45:11;;;;;;;4.70;4.30;;;16.10;99.90;;;;;;5104320;28;20966;-65
2023/09/27 02:47:38;;;;;;;5.10;4.50;;;16.00;99.90;;;;;;5102389;28;20984;-65
2023/09/27 02:50:11;;;;;;;4.83;4.43;;;16.00;99.90;;;;;;5099114;28;20461;-64
2023/09/27 02:52:38;;;;;;;4.67;4.30;;;16.00;99.90;;;;;;5083414;28;20429;-65
2023/09/27 02:55:05;;;;;;;5.83;4.30;;;15.90;99.90;;;;;;5099592;28;20479;-64
2023/09/27 02:57:30;;;;;;;4.73;4.33;;;15.90;99.90;;;;;;5104525;27;20421;-65
2023/09/27 02:59:56;;;;;;;3.60;3.30;;;15.90;99.90;;;;;;5109373;27;20442;-65
2023/09/27 03:02:23;;;;;;;4.17;3.87;;;16.00;99.90;;;;;;5109937;27;20179;-64
2023/09/27 03:04:48;;;;;;;4.30;4.00;;;16.10;99.90;;;;;;5104612;27;20211;-65
2023/09/27 03:07:15;;;;;;;5.20;4.70;;;16.10;99.90;;;;;;5104516;28;21194;-65
2023/09/27 03:09:40;;;;;;;4.97;4.57;;;16.10;99.90;;;;;;5101252;28;20577;-64
2023/09/27 03:12:06;;;;;;;8.33;5.03;;;16.20;99.90;;;;;;5100518;28;20425;-64
2023/09/27 03:14:32;;;;;;;4.90;4.50;;;16.20;99.90;;;;;;5093634;28;20175;-65
2023/09/27 03:16:59;;;;;;;5.47;5.00;;;16.20;99.90;;;;;;5103779;28;20184;-64
2023/09/27 03:19:24;;;;;;;4.73;4.33;;;16.10;99.90;;;;;;5099771;28;20184;-65
2023/09/27 03:21:51;;;;;;;5.40;4.40;;;16.00;99.90;;;;;;5099331;28;20770;-64
2023/09/27 03:24:17;;;;;;;5.17;4.57;;;16.00;99.90;;;;;;5100329;28;20246;-65
2023/09/27 03:26:43;;;;;;;5.40;4.80;;;16.10;99.90;;;;;;5100834;28;20791;-65
2023/09/27 03:29:09;;;;;;;5.67;5.17;;;15.90;99.90;;;;;;5103455;28;20433;-65
2023/09/27 03:31:34;;;;;;;5.33;4.83;;;15.90;99.90;;;;;;5097917;28;20532;-64
2023/09/27 03:34:00;;;;;;;5.03;4.60;;;16.00;99.90;;;;;;5100043;28;20195;-64
2023/09/27 03:36:26;;;;;;;4.60;4.30;;;16.00;99.90;;;;;;5100588;28;20186;-64
2023/09/27 03:38:52;;;;;;;6.20;4.30;;;16.00;99.90;;;;;;5100819;28;20234;-65
2023/09/27 03:41:17;;;;;;;4.77;4.37;;;15.90;99.90;;;;;;5105110;27;20179;-65
2023/09/27 03:43:43;;;;;;;4.67;4.33;;;15.70;99.90;;;;;;5103631;27;20848;-64
2023/09/27 03:46:09;;;;;;;4.47;4.13;;;15.50;99.90;;;;;;5099835;28;20276;-65
2023/09/27 03:48:34;;;;;;;4.60;4.20;;;15.30;99.90;;;;;;5103896;28;20179;-65
2023/09/27 03:51:00;;;;;;;4.77;4.37;;;15.20;99.90;;;;;;5099965;28;20216;-64
2023/09/27 03:53:27;;;;;;;5.07;4.47;;;15.20;99.90;;;;;;5100893;28;20353;-65
2023/09/27 03:55:53;;;;;;;5.37;4.87;;;15.40;99.90;;;;;;5103641;28;20526;-64
2023/09/27 03:58:18;;;;;;;5.50;5.00;;;15.30;99.90;;;;;;5099696;28;20191;-65
2023/09/27 04:00:44;;;;;;;4.60;4.20;;;15.40;99.90;;;;;;5100331;28;20183;-65
2023/09/27 04:03:10;;;;;;;4.97;4.57;;;15.20;99.90;;;;;;5100109;28;20176;-65
2023/09/27 04:05:36;;;;;;;5.47;5.00;;;15.10;99.90;;;;;;5100237;28;20207;-65
2023/09/27 04:08:01;;;;;;;5.10;4.63;;;15.10;99.90;;;;;;5099379;28;20187;-64
2023/09/27 04:10:28;;;;;;;5.40;4.90;;;15.10;99.90;;;;;;5100359;28;20282;-64
2023/09/27 04:12:54;;;;;;;5.70;4.90;;;15.10;99.90;;;;;;5100118;28;20180;-65
2023/09/27 04:15:20;;;;;;;5.80;5.27;;;15.20;99.90;;;;;;5100472;28;20486;-64
2023/09/27 04:17:46;;;;;;;7.47;5.30;;;15.30;99.90;;;;;;5081808;28;20434;-64
2023/09/27 04:20:18;;;;;;;5.23;4.50;;;15.40;99.90;;;;;;5103533;28;20180;-64
2023/09/27 04:22:47;;;;;;;6.03;4.70;;;15.50;99.90;;;;;;5101326;28;20234;-64
2023/09/27 04:25:14;;;;;;;7.10;4.80;;;15.60;99.90;;;;;;5099097;28;20457;-65
2023/09/27 04:27:43;;;;;;;5.27;4.17;;;15.70;99.90;;;;;;5099771;28;20500;-65
2023/09/27 04:30:11;;;;;;;5.20;4.70;;;15.80;99.90;;;;;;5097709;28;20436;-64
2023/09/27 04:32:39;;;;;;;5.33;4.93;;;15.80;99.90;;;;;;5096885;28;20430;-65
2023/09/27 04:35:05;;;;;;;5.20;4.80;;;15.80;99.90;;;;;;5097775;28;20423;-64
2023/09/27 04:37:30;;;;;;;4.60;4.20;;;15.80;99.90;;;;;;5097429;28;20923;-65
2023/09/27 04:39:56;;;;;;;6.30;4.83;;;15.80;99.90;;;;;;5101815;28;20218;-64
2023/09/27 04:42:21;;;;;;;5.50;5.00;;;15.90;99.90;;;;;;5095132;28;20334;-65
2023/09/27 04:44:47;;;;;;;5.50;5.00;;;15.80;99.90;;;;;;5100523;28;20220;-64
2023/09/27 04:47:13;;;;;;;5.50;5.03;;;15.80;99.90;;;;;;5109316;28;20183;-65
2023/09/27 04:49:38;;;;;;;5.10;4.63;;;15.70;99.90;;;;;;5100850;28;20265;-64
2023/09/27 04:52:04;;;;;;;4.63;4.33;;;15.40;99.90;;;;;;5102337;28;20250;-65
2023/09/27 04:54:30;;;;;;;4.70;4.30;;;15.10;99.90;;;;;;5103312;28;20229;-65
2023/09/27 04:56:55;;;;;;;4.63;4.23;;;15.00;99.90;;;;;;5098948;28;20184;-65
2023/09/27 04:59:21;;;;;;;5.80;5.30;;;14.90;99.90;;;;;;5103052;28;20269;-65
2023/09/27 05:01:47;;;;;;;4.97;4.47;;;14.80;99.90;;;;;;5101575;28;20195;-65
2023/09/27 05:04:13;;;;;;;8.93;4.30;;;14.70;99.90;;;;;;5104029;28;20928;-64
2023/09/27 05:06:39;;;;;;;5.33;4.93;;;14.50;99.90;;;;;;5102868;28;20428;-64
2023/09/27 05:09:05;;;;;;;5.40;4.33;;;14.40;99.90;;;;;;5100263;28;20179;-64
2023/09/27 05:11:31;;;;;;;5.53;5.10;;;14.30;99.90;;;;;;5103267;28;20179;-65
2023/09/27 05:13:56;;;;;;;5.30;4.80;;;14.30;99.90;;;;;;5102428;28;20442;-65
2023/09/27 05:16:22;;;;;;;6.10;5.60;;;14.30;99.90;;;;;;5085135;28;20179;-64
2023/09/27 05:18:48;;;;;;;5.00;4.50;;;14.40;99.90;;;;;;5099118;28;20637;-65
2023/09/27 05:21:13;;;;;;;5.67;5.17;;;14.40;99.90;;;;;;5102357;28;20526;-65
2023/09/27 05:23:39;;;;;;;5.93;5.30;;;14.40;99.90;;;;;;5103842;28;20591;-64
2023/09/27 05:26:05;;;;;;;6.30;5.70;;;14.40;99.90;;;;;;5096294;28;20222;-65
2023/09/27 05:28:32;;;;;;;6.17;5.67;;;14.40;99.90;;;;;;5100573;28;20179;-65
2023/09/27 05:30:58;;;;;;;5.43;4.93;;;14.60;99.90;;;;;;5099690;28;20203;-65
2023/09/27 05:33:24;;;;;;;5.50;5.00;;;14.60;99.90;;;;;;5101047;28;21388;-65
2023/09/27 05:35:50;;;;;;;5.50;5.00;;;14.60;99.90;;;;;;5100712;28;20195;-64
2023/09/27 05:38:17;;;;;;;5.93;5.43;;;14.80;99.90;;;;;;5101484;28;20433;-64
2023/09/27 05:40:42;;;;;;;6.23;5.33;;;14.90;99.90;;;;;;5102828;28;20270;-65
2023/09/27 05:43:08;;;;;;;5.53;5.13;;;15.00;99.90;;;;;;5098520;28;20482;-65
2023/09/27 05:45:34;;;;;;;6.10;5.50;;;14.90;99.90;;;;;;5102901;28;20612;-64
2023/09/27 05:48:00;;;;;;;5.87;5.37;;;14.80;99.90;;;;;;5097881;28;20184;-65
2023/09/27 05:50:26;;;;;;;5.47;4.70;;;14.70;99.90;;;;;;5099392;28;20440;-65
2023/09/27 05:52:51;;;;;;;5.30;4.90;;;14.70;99.90;;;;;;5098541;28;20187;-64
2023/09/27 05:55:17;;;;;;;5.80;5.23;;;14.80;99.90;;;;;;5098405;28;20195;-65
2023/09/27 05:57:44;;;;;;;6.43;5.73;;;14.80;99.90;;;;;;5098514;28;20237;-65
2023/09/27 06:00:22;;;;;;;7.03;5.50;;;14.90;99.90;;;;;;5105822;28;20190;-65
2023/09/27 06:02:47;;;;;;;6.43;5.80;;;15.00;99.90;;;;;;5100612;27;20442;-64
2023/09/27 06:05:13;;;;;;;6.17;5.67;;;15.00;99.90;;;;;;5103688;27;20503;-65
2023/09/27 06:07:39;;;;;;;6.10;5.33;;;15.10;99.90;;;;;;5110855;27;20194;-64
2023/09/27 06:10:06;;;;;;;6.20;5.70;;;15.00;99.90;;;;;;5101707;28;20184;-65
2023/09/27 06:12:32;;;;;;;6.60;6.00;;;14.90;99.90;;;;;;5105405;28;20233;-64
2023/09/27 06:14:57;;;;;;;5.80;5.30;;;14.80;99.90;;;;;;5101636;28;20427;-65
2023/09/27 06:17:23;;;;;;;5.77;5.27;;;14.70;99.90;;;;;;5102162;28;20211;-65
2023/09/27 06:19:52;;;;;;;6.27;5.60;;;14.80;99.90;;;;;;5101847;28;20219;-64
2023/09/27 06:23:05;;;;;;;6.17;5.67;;;14.90;99.90;;;;;;5099596;27;20438;-64
2023/09/27 06:25:46;;;;;;;7.80;6.07;;;15.00;99.90;;;;;;5099822;27;20852;-64
2023/09/27 06:28:19;;;;;;;8.00;5.73;;;15.20;99.90;;;;;;5104879;27;20433;-65
2023/09/27 06:30:59;;;;;;;8.03;5.50;;;15.30;99.90;;;;;;5098876;27;20951;-65
2023/09/27 06:33:49;;;;;;;6.30;5.80;;;15.20;99.90;;;;;;5108289;27;20426;-63
2023/09/27 06:36:48;;;;;;;6.93;6.37;;;15.30;99.90;;;;;;5041494;28;20444;-65
2023/09/27 06:39:15;;;;;;;6.03;5.53;;;15.40;99.90;;;;;;5041867;28;20900;-65
2023/09/27 06:41:42;;;;;;;6.93;6.30;;;15.60;99.90;;;;;;5040250;28;20432;-65
2023/09/27 06:44:23;;;;;;;7.30;6.60;;;15.70;99.90;;;;;;5041116;28;21472;-64
2023/09/27 06:46:49;;;;;;;8.00;5.80;;;15.90;99.90;;;;;;5040759;28;20441;-65
2023/09/27 06:49:38;;;;;;;6.87;6.13;;;16.10;99.90;;;;;;5041133;28;20943;-65
2023/09/27 06:52:05;;;;;;;6.70;6.10;;;16.20;99.90;;;;;;5040937;28;20914;-65
2023/09/27 06:54:37;;;;;;;8.13;7.43;;;16.30;99.90;;;;;;5050037;28;20427;-65
2023/09/27 06:57:34;;;;;;;9.33;6.50;;;16.40;99.90;;;;;;5046369;28;20503;-64
2023/09/27 07:00:18;;;;;;;9.20;6.40;;;16.50;99.90;;;;;;5044944;28;20519;-65
2023/09/27 07:02:56;;;;;;;8.17;6.00;;;16.50;99.90;;;;;;5045330;28;20945;-64
2023/09/27 07:05:41;;;;;;;6.70;6.00;;;16.60;99.90;;;;;;5051339;28;20462;-65
2023/09/27 07:08:13;;;;;;;6.43;5.60;;;16.60;99.90;;;;;;5101851;27;20425;-65
2023/09/27 07:10:42;;;;;;;6.23;5.63;;;16.70;99.90;;;;;;5104675;28;20414;-65
2023/09/27 07:13:11;;;;;;;8.80;6.90;;;16.70;99.90;;;;;;5103636;28;20413;-64
2023/09/27 07:15:37;;;;;;;6.83;5.90;;;16.70;99.90;;;;;;5101246;28;20422;-65
2023/09/27 07:18:21;;;;;;;5.97;5.37;;;16.70;99.90;;;;;;5102949;27;20426;-64
2023/09/27 07:20:47;;;;;;;5.73;5.03;;;16.60;99.90;;;;;;5101531;28;20441;-65
2023/09/27 07:23:16;;;;;;;7.20;5.93;;;16.50;99.90;;;;;;5100917;28;20440;-64
2023/09/27 07:26:30;;;;;;;6.90;5.70;;;16.50;99.90;;;;;;5100423;28;21082;-65
2023/09/27 07:29:30;;;;;;;6.80;6.20;;;16.60;99.90;;;;;;5029150;28;20854;-65
2023/09/27 07:31:55;;;;;;;7.43;5.80;;;16.70;99.90;;;;;;5045925;28;20427;-64
2023/09/27 07:34:21;;;;;;;6.80;5.50;;;16.80;99.90;;;;;;5103111;27;20439;-65
2023/09/27 07:36:47;;;;;;;6.33;5.53;;;16.90;99.90;;;;;;5105753;27;20206;-65
2023/09/27 07:39:13;;;;;;;7.60;5.20;;;16.90;99.90;;;;;;5106425;27;20184;-65
2023/09/27 07:41:40;;;;;;;6.13;5.43;;;16.90;99.90;;;;;;5101565;28;20177;-65
2023/09/27 07:44:09;;;;;;;9.07;5.83;;;16.90;99.90;;;;;;5100035;28;21151;-65
2023/09/27 07:46:35;;;;;;;6.57;5.60;;;16.90;99.90;;;;;;5101376;28;21996;-65
2023/09/27 07:49:00;;;;;;;6.73;6.10;;;17.00;99.90;;;;;;5101574;28;20544;-64
2023/09/27 07:51:26;;;;;;;5.93;5.27;;;17.00;99.90;;;;;;5102480;28;20475;-65
2023/09/27 07:53:53;;;;;;;6.30;5.70;;;17.10;99.90;;;;;;5099875;28;20180;-65
2023/09/27 07:56:25;;;;;;;5.97;5.37;;;17.10;99.90;;;;;;5102139;28;20194;-65
2023/09/27 07:58:53;;;;;;;5.60;5.10;;;17.20;99.90;;;;;;5102574;28;20421;-64
2023/09/27 08:01:22;;;;;;;5.63;5.10;;;17.30;99.90;;;;;;5101640;28;20430;-64
2023/09/27 08:03:49;;;;;;;6.80;5.60;;;17.30;99.90;;;;;;5101331;28;20445;-64
2023/09/27 08:06:16;;;;;;;6.23;5.70;;;17.40;99.90;;;;;;5101948;28;20485;-64
2023/09/27 08:08:42;;;;;;;6.63;5.63;;;17.50;99.90;;;;;;5101450;28;20429;-64
2023/09/27 08:11:11;;;;;;;6.70;6.10;;;17.70;99.90;;;;;;5084872;28;20472;-64
2023/09/27 08:13:37;;;;;;;19.93;8.53;;;17.90;99.90;;;;;;5103431;28;20454;-65
2023/09/27 08:16:06;;;;;;;73.17;14.37;;;18.10;99.90;;;;;;5101224;28;20430;-65
2023/09/27 08:18:33;;;;;;;13.00;7.03;;;18.40;99.90;;;;;;5101817;28;20421;-65
2023/09/27 08:20:59;;;;;;;21.07;8.03;;;18.50;99.90;;;;;;5102704;28;20430;-65
2023/09/27 08:23:25;;;;;;;6.10;5.30;;;18.60;99.90;;;;;;5083161;28;20413;-65
2023/09/27 08:25:52;;;;;;;5.63;5.00;;;18.70;99.90;;;;;;5100215;28;20937;-64
2023/09/27 08:28:21;;;;;;;9.20;5.90;;;18.70;99.90;;;;;;5103590;28;20954;-64
2023/09/27 08:30:47;;;;;;;5.73;5.20;;;18.80;99.90;;;;;;5102390;28;20490;-65
2023/09/27 08:33:13;;;;;;;5.87;5.37;;;18.90;99.90;;;;;;5101363;28;20430;-65
2023/09/27 08:35:40;;;;;;;5.77;5.27;;;19.10;99.90;;;;;;5102658;28;20534;-64
2023/09/27 08:38:06;;;;;;;5.93;5.43;;;19.20;99.90;;;;;;5100942;28;20426;-65
2023/09/27 08:40:31;;;;;;;6.20;5.60;;;19.20;99.90;;;;;;5103165;28;20421;-64
2023/09/27 08:42:59;;;;;;;5.47;4.90;;;19.20;99.90;;;;;;5102862;28;20827;-64
2023/09/27 08:45:26;;;;;;;5.20;4.70;;;19.30;99.90;;;;;;5085765;28;20207;-64
2023/09/27 08:47:54;;;;;;;5.70;4.53;;;19.30;99.90;;;;;;5102118;28;21002;-64
2023/09/27 08:50:20;;;;;;;5.70;5.10;;;19.30;99.90;;;;;;5100086;28;20694;-64
2023/09/27 08:52:48;;;;;;;5.20;4.70;;;19.30;99.90;;;;;;5082973;28;20856;-64
2023/09/27 08:55:15;;;;;;;5.90;5.30;;;19.30;99.90;;;;;;5100958;28;20475;-65
2023/09/27 08:57:46;;;;;;;5.17;4.67;;;19.30;99.90;;;;;;5100847;28;20417;-64
2023/09/27 09:00:20;;;;;;;4.80;4.40;;;19.30;99.90;;;;;;5101120;28;20451;-64
2023/09/27 09:02:56;;;;;;;5.50;5.00;;;19.30;99.90;;;;;;5101522;28;20430;-65
2023/09/27 09:05:22;;;;;;;5.00;4.57;;;19.30;99.90;;;;;;5101202;28;20475;-65
2023/09/27 09:07:49;;;;;;;5.40;4.50;;;19.40;99.90;;;;;;5100322;28;20428;-64
2023/09/27 09:10:16;;;;;;;5.63;4.73;;;19.40;99.90;;;;;;5100700;28;20422;-65
2023/09/27 09:12:47;;;;;;;5.20;4.60;;;19.40;99.90;;;;;;5084649;28;20830;-65
2023/09/27 09:15:28;;;;;;;6.20;5.70;;;19.50;99.90;;;;;;5102949;28;20433;-64
2023/09/27 09:17:57;;;;;;;5.07;4.63;;;19.60;99.90;;;;;;5095790;28;20516;-64
2023/09/27 09:20:48;;;;;;;4.57;4.17;;;19.90;99.90;;;;;;5102757;28;20425;-65
2023/09/27 09:23:31;;;;;;;5.13;4.40;;;20.10;99.90;;;;;;5099673;28;20924;-65
2023/09/27 09:25:57;;;;;;;5.87;5.20;;;20.30;99.90;;;;;;5100125;28;20816;-65
2023/09/27 09:28:24;;;;;;;8.00;4.50;;;20.40;99.90;;;;;;5084470;28;20420;-65
2023/09/27 09:30:50;;;;;;;8.93;4.97;;;20.50;99.90;;;;;;5099678;28;20907;-65
2023/09/27 09:33:20;;;;;;;8.00;5.40;;;20.50;99.90;;;;;;5102816;28;20428;-65
2023/09/27 09:35:46;;;;;;;5.73;4.80;;;20.70;99.90;;;;;;5086300;28;20188;-65
2023/09/27 09:38:13;;;;;;;5.67;5.07;;;20.70;99.90;;;;;;5106610;28;20430;-64
2023/09/27 09:40:56;;;;;;;7.70;5.87;;;20.80;99.90;;;;;;5101849;28;20462;-65
2023/09/27 09:43:28;;;;;;;6.17;5.50;;;21.10;99.90;;;;;;5104762;28;20504;-65
2023/09/27 09:45:54;;;;;;;6.53;5.30;;;21.20;99.90;;;;;;5103843;28;20585;-64
2023/09/27 09:48:20;;;;;;;7.07;5.17;;;21.40;99.90;;;;;;5103989;28;20520;-65
2023/09/27 09:50:47;;;;;;;5.20;4.70;;;21.60;99.90;;;;;;5104171;28;20191;-64
2023/09/27 09:53:15;;;;;;;8.20;4.90;;;21.70;99.90;;;;;;5106407;28;20207;-64
2023/09/27 09:55:42;;;;;;;5.60;4.67;;;21.80;99.90;;;;;;5102027;28;20469;-64
2023/09/27 09:58:35;;;;;;;5.07;4.43;;;22.00;99.90;;;;;;5104350;28;20927;-65
2023/09/27 10:01:03;;;;;;;4.83;4.07;;;22.10;99.90;;;;;;5091942;28;20494;-65
2023/09/27 10:03:33;;;;;;;6.57;4.63;;;22.20;99.90;;;;;;5106117;28;20425;-65
2023/09/27 10:06:04;;;;;;;4.77;4.20;;;22.30;99.90;;;;;;5099534;28;20575;-65
2023/09/27 10:08:34;;;;;;;4.33;3.80;;;22.30;99.90;;;;;;5103962;28;20479;-65
2023/09/27 10:11:04;;;;;;;5.83;4.37;;;22.40;99.90;;;;;;5103686;28;20436;-64
2023/09/27 10:13:33;;;;;;;4.50;4.10;;;22.40;99.90;;;;;;5104308;28;20852;-64
2023/09/27 10:15:59;;;;;;;4.90;4.50;;;22.50;99.90;;;;;;5105407;28;20556;-65
2023/09/27 10:18:29;;;;;;;4.60;4.20;;;22.60;99.90;;;;;;5104301;28;20583;-65
2023/09/27 10:21:01;;;;;;;6.00;4.80;;;22.70;99.90;;;;;;5105211;28;20449;-64
2023/09/27 10:23:26;;;;;;;5.67;4.40;;;22.70;99.90;;;;;;5103846;28;20426;-65
2023/09/27 10:25:52;;;;;;;3.80;3.50;;;22.80;99.90;;;;;;5104919;28;20491;-65
2023/09/27 10:28:18;;;;;;;4.83;3.97;;;23.00;99.90;;;;;;5106185;28;20270;-65
2023/09/27 10:30:48;;;;;;;4.20;3.80;;;23.10;99.90;;;;;;5104414;28;20194;-65
2023/09/27 10:33:17;;;;;;;3.87;3.40;;;23.20;99.90;;;;;;5103953;28;20766;-64
2023/09/27 10:36:25;;;;;;;4.40;3.90;;;23.30;99.90;;;;;;5103094;28;20433;-65
2023/09/27 10:38:51;;;;;;;5.43;4.50;;;23.50;99.90;;;;;;5068569;28;20428;-64
2023/09/27 10:41:32;;;;;;;4.60;3.77;;;23.60;99.90;;;;;;5103137;28;20430;-65
2023/09/27 10:43:58;;;;;;;4.60;4.27;;;23.70;99.90;;;;;;5102759;28;20533;-65
2023/09/27 10:46:24;;;;;;;4.17;3.50;;;23.70;99.90;;;;;;5103199;28;21288;-65
2023/09/27 10:48:55;;;;;;;4.80;3.60;;;23.70;99.90;;;;;;5102504;28;20429;-64
2023/09/27 10:51:21;;;;;;;3.77;3.47;;;23.80;99.90;;;;;;5103134;28;20532;-64
2023/09/27 10:53:48;;;;;;;4.27;3.63;;;23.80;99.90;;;;;;5104751;28;20437;-65
2023/09/27 10:56:15;;;;;;;3.50;3.20;;;23.70;99.90;;;;;;5100905;28;20441;-65
2023/09/27 10:58:51;;;;;;;6.00;4.07;;;23.80;99.90;;;;;;5102185;28;20425;-63
2023/09/27 11:01:22;;;;;;;3.70;3.40;;;23.90;99.90;;;;;;5104722;28;20442;-64
2023/09/27 11:03:56;;;;;;;5.40;4.00;;;23.90;99.90;;;;;;5100873;28;20419;-65
2023/09/27 11:06:22;;;;;;;3.53;3.23;;;24.00;99.90;;;;;;5103032;28;20548;-65
2023/09/27 11:08:48;;;;;;;5.10;3.50;;;24.10;99.90;;;;;;5101954;28;20589;-65
2023/09/27 11:11:14;;;;;;;5.23;3.60;;;24.20;99.90;;;;;;5086794;28;20418;-65
2023/09/27 11:13:43;;;;;;;6.00;3.73;;;24.20;99.90;;;;;;5102595;28;20188;-64
2023/09/27 11:16:11;;;;;;;3.70;3.33;;;24.20;99.90;;;;;;5106174;27;20505;-65
2023/09/27 11:18:45;;;;;;;3.87;3.50;;;24.00;99.90;;;;;;5086290;27;20788;-65
2023/09/27 11:21:12;;;;;;;4.03;3.60;;;24.00;99.90;;;;;;5114485;27;20421;-64
2023/09/27 11:23:58;;;;;;;4.00;3.20;;;24.10;99.90;;;;;;5104670;27;20432;-64
2023/09/27 11:26:31;;;;;;;3.50;3.20;;;24.10;99.90;;;;;;5102294;28;20480;-64
2023/09/27 11:29:04;;;;;;;3.47;3.10;;;24.20;99.90;;;;;;5104133;27;20475;-64
2023/09/27 11:31:35;;;;;;;4.00;3.33;;;24.20;99.90;;;;;;5102297;28;20434;-65
2023/09/27 11:34:17;;;;;;;3.60;3.00;;;24.20;99.50;;;;;;5102085;28;20515;-64
2023/09/27 11:37:05;;;;;;;3.33;2.90;;;24.10;99.00;;;;;;5105007;27;20432;-64
2023/09/27 11:39:50;;;;;;;5.03;3.07;;;24.00;99.50;;;;;;5100702;28;20446;-64
2023/09/27 11:42:21;;;;;;;3.20;2.90;;;24.00;99.90;;;;;;5084092;28;20426;-64
2023/09/27 11:45:08;;;;;;;6.80;3.47;;;24.00;99.90;;;;;;5095532;28;20473;-64
2023/09/27 11:47:48;;;;;;;4.20;3.03;;;24.00;99.70;;;;;;5103362;28;20433;-64
2023/09/27 11:50:15;;;;;;;3.60;3.13;;;24.00;99.40;;;;;;5097018;27;21139;-63
2023/09/27 11:52:46;;;;;;;3.60;3.30;;;24.10;99.50;;;;;;5101376;28;20505;-64
2023/09/27 11:55:16;;;;;;;3.40;3.10;;;24.10;99.20;;;;;;5102984;28;20430;-64
2023/09/27 11:57:42;;;;;;;3.33;3.07;;;24.10;99.30;;;;;;5101316;28;20422;-64
2023/09/27 12:00:09;;;;;;;2.70;2.50;;;24.00;99.40;;;;;;5094388;28;20479;-64
2023/09/27 12:02:35;;;;;;;3.33;3.03;;;24.00;99.90;;;;;;5104130;27;21271;-64
2023/09/27 12:05:04;;;;;;;4.40;3.47;;;24.00;99.90;;;;;;5112032;27;20456;-64
2023/09/27 12:07:30;;;;;;;3.80;3.50;;;23.80;99.90;;;;;;5098544;27;20438;-64
2023/09/27 12:09:56;;;;;;;4.30;3.00;;;23.70;99.90;;;;;;5085181;28;20413;-64
2023/09/27 12:12:22;;;;;;;3.80;3.50;;;23.70;99.90;;;;;;5103129;28;20428;-64
2023/09/27 12:14:49;;;;;;;4.63;3.20;;;23.70;99.90;;;;;;5101618;28;20187;-64
2023/09/27 12:17:18;;;;;;;5.77;3.87;;;23.70;99.90;;;;;;5100683;28;20546;-64
2023/09/27 12:19:45;;;;;;;4.03;3.47;;;23.70;99.90;;;;;;5101138;28;20418;-64
2023/09/27 12:22:11;;;;;;;5.13;3.50;;;23.90;99.90;;;;;;5102843;28;20428;-64
2023/09/27 12:24:37;;;;;;;5.03;3.50;;;24.00;99.90;;;;;;5099932;28;20607;-64
2023/09/27 12:27:04;;;;;;;5.80;3.50;;;24.10;99.90;;;;;;5102582;27;20713;-64
2023/09/27 12:29:30;;;;;;;2.80;2.60;;;24.20;99.90;;;;;;5103798;27;20467;-64
2023/09/27 12:31:55;;;;;;;9.03;3.67;;;24.30;99.90;;;;;;5101166;27;20430;-64
2023/09/27 12:34:21;;;;;;;3.43;3.13;;;24.40;99.90;;;;;;5109373;27;20182;-65
2023/09/27 12:36:49;;;;;;;3.80;2.97;;;24.40;99.90;;;;;;5108081;27;20179;-64
2023/09/27 12:39:15;;;;;;;7.37;3.50;;;24.50;99.90;;;;;;5105949;27;20263;-64
2023/09/27 12:41:41;;;;;;;6.07;3.50;;;24.50;99.90;;;;;;5107856;27;20524;-64
2023/09/27 12:44:06;;;;;;;3.30;3.00;;;24.50;99.90;;;;;;5109429;28;20237;-64
2023/09/27 12:46:32;;;;;;;2.90;2.70;;;24.50;99.90;;;;;;5092578;28;20919;-64
2023/09/27 12:48:59;;;;;;;2.70;2.50;;;24.50;99.90;;;;;;5108793;28;20218;-64
2023/09/27 12:51:25;;;;;;;2.73;2.53;;;24.50;99.90;;;;;;5104722;28;20498;-64
2023/09/27 12:53:50;;;;;;;3.40;3.10;;;24.50;99.90;;;;;;5106673;28;20923;-64